sensor_id;sensor_type;location;lat;lon;timestamp;P1;durP1;ratioP1;P2;durP2;ratioP2
23370;SDS011;11858;51.056;3.712;2023-02-28T00:01:24;28.65;;;26.02;;
23370;SDS011;11858;51.056;3.712;2023-02-28T00:03:50;28.20;;;25.55;;
23370;SDS011;11858;51.056;3.712;2023-02-28T00:06:16;29.33;;;26.42;;
23370;SDS011;11858;51.056;3.712;2023-02-28T00:08:42;28.98;;;25.95;;
23370;SDS011;11858;51.056;3.712;2023-02-28T00:11:09;29.02;;;25.95;;
23370;SDS011;11858;51.056;3.712;2023-02-28T00:13:37;34.55;;;27.23;;
23370;SDS011;11858;51.056;3.712;2023-02-28T00:16:06;30.45;;;27.65;;
23370;SDS011;11858;51.056;3.712;2023-02-28T00:18:34;28.77;;;26.20;;
23370;SDS011;11858;51.056;3.712;2023-02-28T00:21:00;28.58;;;25.75;;
23370;SDS011;11858;51.056;3.712;2023-02-28T00:23:26;29.73;;;27.02;;
23370;SDS011;11858;51.056;3.712;2023-02-28T00:25:52;30.15;;;27.35;;
23370;SDS011;11858;51.056;3.712;2023-02-28T00:28:19;30.08;;;27.13;;
23370;SDS011;11858;51.056;3.712;2023-02-28T00:30:45;30.23;;;27.50;;
23370;SDS011;11858;51.056;3.712;2023-02-28T00:33:11;29.95;;;27.08;;
23370;SDS011;11858;51.056;3.712;2023-02-28T00:35:37;31.15;;;27.95;;
23370;SDS011;11858;51.056;3.712;2023-02-28T00:38:03;30.40;;;27.50;;
23370;SDS011;11858;51.056;3.712;2023-02-28T00:40:29;30.67;;;27.65;;
23370;SDS011;11858;51.056;3.712;2023-02-28T00:42:55;31.33;;;28.13;;
23370;SDS011;11858;51.056;3.712;2023-02-28T00:45:21;30.40;;;27.45;;
23370;SDS011;11858;51.056;3.712;2023-02-28T00:47:46;30.92;;;28.23;;
23370;SDS011;11858;51.056;3.712;2023-02-28T00:50:16;30.67;;;27.63;;
23370;SDS011;11858;51.056;3.712;2023-02-28T00:52:42;32.17;;;28.75;;
23370;SDS011;11858;51.056;3.712;2023-02-28T00:55:08;30.52;;;27.48;;
23370;SDS011;11858;51.056;3.712;2023-02-28T00:57:34;31.48;;;28.35;;
23370;SDS011;11858;51.056;3.712;2023-02-28T01:00:00;30.27;;;27.27;;
23370;SDS011;11858;51.056;3.712;2023-02-28T01:02:26;30.13;;;27.08;;
23370;SDS011;11858;51.056;3.712;2023-02-28T01:04:52;29.90;;;27.13;;
23370;SDS011;11858;51.056;3.712;2023-02-28T01:07:18;30.92;;;27.90;;
23370;SDS011;11858;51.056;3.712;2023-02-28T01:09:44;32.00;;;28.67;;
23370;SDS011;11858;51.056;3.712;2023-02-28T01:12:10;31.58;;;28.67;;
23370;SDS011;11858;51.056;3.712;2023-02-28T01:14:36;31.92;;;28.70;;
23370;SDS011;11858;51.056;3.712;2023-02-28T01:17:02;31.40;;;28.15;;
23370;SDS011;11858;51.056;3.712;2023-02-28T01:19:28;30.70;;;27.85;;
23370;SDS011;11858;51.056;3.712;2023-02-28T01:21:54;30.65;;;27.75;;
23370;SDS011;11858;51.056;3.712;2023-02-28T01:24:19;31.00;;;28.20;;
23370;SDS011;11858;51.056;3.712;2023-02-28T01:26:45;29.92;;;27.23;;
23370;SDS011;11858;51.056;3.712;2023-02-28T01:29:11;30.77;;;27.88;;
23370;SDS011;11858;51.056;3.712;2023-02-28T01:31:36;29.92;;;27.10;;
23370;SDS011;11858;51.056;3.712;2023-02-28T01:34:02;29.45;;;26.65;;
23370;SDS011;11858;51.056;3.712;2023-02-28T01:36:29;30.08;;;27.10;;
23370;SDS011;11858;51.056;3.712;2023-02-28T01:38:55;30.92;;;27.90;;
23370;SDS011;11858;51.056;3.712;2023-02-28T01:46:14;30.52;;;27.52;;
23370;SDS011;11858;51.056;3.712;2023-02-28T01:49:03;31.50;;;28.50;;
23370;SDS011;11858;51.056;3.712;2023-02-28T01:51:46;30.23;;;27.52;;
23370;SDS011;11858;51.056;3.712;2023-02-28T01:54:18;32.30;;;28.35;;
23370;SDS011;11858;51.056;3.712;2023-02-28T01:56:51;30.48;;;27.67;;
23370;SDS011;11858;51.056;3.712;2023-02-28T01:59:54;30.70;;;27.88;;
23370;SDS011;11858;51.056;3.712;2023-02-28T02:02:18;31.00;;;28.10;;
23370;SDS011;11858;51.056;3.712;2023-02-28T02:04:53;32.65;;;29.55;;
23370;SDS011;11858;51.056;3.712;2023-02-28T02:07:21;31.02;;;28.13;;
23370;SDS011;11858;51.056;3.712;2023-02-28T02:09:49;30.20;;;27.42;;
23370;SDS011;11858;51.056;3.712;2023-02-28T02:15:12;31.42;;;28.35;;
23370;SDS011;11858;51.056;3.712;2023-02-28T02:17:44;30.20;;;27.40;;
23370;SDS011;11858;51.056;3.712;2023-02-28T02:20:19;29.52;;;26.80;;
23370;SDS011;11858;51.056;3.712;2023-02-28T02:23:06;29.90;;;27.08;;
23370;SDS011;11858;51.056;3.712;2023-02-28T02:39:58;29.38;;;26.55;;
23370;SDS011;11858;51.056;3.712;2023-02-28T02:45:04;29.33;;;26.30;;
23370;SDS011;11858;51.056;3.712;2023-02-28T02:47:44;29.25;;;26.42;;
23370;SDS011;11858;51.056;3.712;2023-02-28T02:50:12;29.92;;;27.02;;
23370;SDS011;11858;51.056;3.712;2023-02-28T02:52:44;30.95;;;27.90;;
23370;SDS011;11858;51.056;3.712;2023-02-28T02:55:15;29.02;;;26.35;;
23370;SDS011;11858;51.056;3.712;2023-02-28T02:57:47;29.17;;;26.40;;
23370;SDS011;11858;51.056;3.712;2023-02-28T03:00:25;29.13;;;26.45;;
23370;SDS011;11858;51.056;3.712;2023-02-28T03:02:55;30.10;;;27.40;;
23370;SDS011;11858;51.056;3.712;2023-02-28T03:05:26;30.15;;;27.08;;
23370;SDS011;11858;51.056;3.712;2023-02-28T03:07:58;29.05;;;26.30;;
23370;SDS011;11858;51.056;3.712;2023-02-28T03:10:58;31.33;;;28.17;;
23370;SDS011;11858;51.056;3.712;2023-02-28T03:32:33;32.45;;;28.20;;
23370;SDS011;11858;51.056;3.712;2023-02-28T03:35:17;30.77;;;27.57;;
23370;SDS011;11858;51.056;3.712;2023-02-28T03:37:47;31.58;;;28.40;;
23370;SDS011;11858;51.056;3.712;2023-02-28T03:40:21;30.75;;;27.55;;
23370;SDS011;11858;51.056;3.712;2023-02-28T03:42:51;30.15;;;27.10;;
23370;SDS011;11858;51.056;3.712;2023-02-28T03:45:24;29.33;;;26.50;;
23370;SDS011;11858;51.056;3.712;2023-02-28T03:47:54;31.15;;;28.05;;
23370;SDS011;11858;51.056;3.712;2023-02-28T03:56:03;29.27;;;26.48;;
23370;SDS011;11858;51.056;3.712;2023-02-28T03:58:44;29.35;;;26.60;;
23370;SDS011;11858;51.056;3.712;2023-02-28T04:04:06;37.53;;;34.33;;
23370;SDS011;11858;51.056;3.712;2023-02-28T04:06:34;39.28;;;35.75;;
23370;SDS011;11858;51.056;3.712;2023-02-28T04:09:00;38.17;;;34.70;;
23370;SDS011;11858;51.056;3.712;2023-02-28T04:14:06;38.60;;;35.33;;
23370;SDS011;11858;51.056;3.712;2023-02-28T04:16:33;37.67;;;34.58;;
23370;SDS011;11858;51.056;3.712;2023-02-28T04:19:00;38.45;;;35.13;;
23370;SDS011;11858;51.056;3.712;2023-02-28T04:21:31;37.72;;;34.33;;
23370;SDS011;11858;51.056;3.712;2023-02-28T04:23:59;38.60;;;35.13;;
23370;SDS011;11858;51.056;3.712;2023-02-28T04:26:44;38.55;;;34.97;;
23370;SDS011;11858;51.056;3.712;2023-02-28T04:29:13;38.13;;;34.53;;
23370;SDS011;11858;51.056;3.712;2023-02-28T04:31:42;37.25;;;33.85;;
23370;SDS011;11858;51.056;3.712;2023-02-28T04:34:08;38.28;;;34.67;;
23370;SDS011;11858;51.056;3.712;2023-02-28T04:36:34;35.17;;;32.25;;
23370;SDS011;11858;51.056;3.712;2023-02-28T04:38:59;39.55;;;36.15;;
23370;SDS011;11858;51.056;3.712;2023-02-28T04:41:25;38.67;;;35.33;;
23370;SDS011;11858;51.056;3.712;2023-02-28T04:43:51;40.35;;;36.75;;
23370;SDS011;11858;51.056;3.712;2023-02-28T04:46:17;37.85;;;34.72;;
23370;SDS011;11858;51.056;3.712;2023-02-28T04:48:44;37.80;;;34.35;;
23370;SDS011;11858;51.056;3.712;2023-02-28T04:51:10;38.15;;;34.42;;
23370;SDS011;11858;51.056;3.712;2023-02-28T04:53:39;38.00;;;34.70;;
23370;SDS011;11858;51.056;3.712;2023-02-28T04:56:06;37.03;;;33.75;;
23370;SDS011;11858;51.056;3.712;2023-02-28T04:58:32;37.22;;;33.90;;
23370;SDS011;11858;51.056;3.712;2023-02-28T05:01:40;37.88;;;34.47;;
23370;SDS011;11858;51.056;3.712;2023-02-28T05:03:50;36.25;;;33.08;;
23370;SDS011;11858;51.056;3.712;2023-02-28T05:06:17;35.70;;;32.80;;
23370;SDS011;11858;51.056;3.712;2023-02-28T05:08:44;37.33;;;33.92;;
23370;SDS011;11858;51.056;3.712;2023-02-28T05:11:18;35.42;;;32.20;;
23370;SDS011;11858;51.056;3.712;2023-02-28T05:13:46;34.90;;;31.98;;
23370;SDS011;11858;51.056;3.712;2023-02-28T05:16:12;37.10;;;33.63;;
23370;SDS011;11858;51.056;3.712;2023-02-28T05:18:38;36.40;;;33.40;;
23370;SDS011;11858;51.056;3.712;2023-02-28T05:21:04;36.88;;;33.58;;
23370;SDS011;11858;51.056;3.712;2023-02-28T05:23:31;37.30;;;33.70;;
23370;SDS011;11858;51.056;3.712;2023-02-28T05:25:57;36.22;;;32.67;;
23370;SDS011;11858;51.056;3.712;2023-02-28T05:28:23;36.05;;;32.60;;
23370;SDS011;11858;51.056;3.712;2023-02-28T05:30:49;33.88;;;30.73;;
23370;SDS011;11858;51.056;3.712;2023-02-28T05:33:14;29.88;;;27.10;;
23370;SDS011;11858;51.056;3.712;2023-02-28T05:35:40;30.10;;;27.15;;
23370;SDS011;11858;51.056;3.712;2023-02-28T05:38:08;29.08;;;26.15;;
23370;SDS011;11858;51.056;3.712;2023-02-28T05:40:34;29.65;;;26.50;;
23370;SDS011;11858;51.056;3.712;2023-02-28T05:43:00;29.30;;;26.48;;
23370;SDS011;11858;51.056;3.712;2023-02-28T05:45:26;29.83;;;26.90;;
23370;SDS011;11858;51.056;3.712;2023-02-28T05:47:55;30.17;;;27.10;;
23370;SDS011;11858;51.056;3.712;2023-02-28T05:50:21;30.52;;;27.27;;
23370;SDS011;11858;51.056;3.712;2023-02-28T05:52:50;30.52;;;27.48;;
23370;SDS011;11858;51.056;3.712;2023-02-28T05:55:17;30.02;;;27.15;;
23370;SDS011;11858;51.056;3.712;2023-02-28T05:57:43;30.42;;;27.55;;
23370;SDS011;11858;51.056;3.712;2023-02-28T06:00:09;30.33;;;27.52;;
23370;SDS011;11858;51.056;3.712;2023-02-28T06:02:35;29.20;;;26.25;;
23370;SDS011;11858;51.056;3.712;2023-02-28T06:05:03;28.98;;;25.95;;
23370;SDS011;11858;51.056;3.712;2023-02-28T06:07:29;30.58;;;27.58;;
23370;SDS011;11858;51.056;3.712;2023-02-28T06:09:56;30.02;;;27.02;;
23370;SDS011;11858;51.056;3.712;2023-02-28T06:12:21;30.08;;;27.08;;
23370;SDS011;11858;51.056;3.712;2023-02-28T06:14:47;31.08;;;27.80;;
23370;SDS011;11858;51.056;3.712;2023-02-28T06:17:13;36.85;;;27.08;;
23370;SDS011;11858;51.056;3.712;2023-02-28T06:19:39;29.20;;;26.48;;
23370;SDS011;11858;51.056;3.712;2023-02-28T06:22:06;31.48;;;26.65;;
23370;SDS011;11858;51.056;3.712;2023-02-28T06:24:32;30.73;;;27.52;;
23370;SDS011;11858;51.056;3.712;2023-02-28T06:26:58;30.85;;;27.83;;
23370;SDS011;11858;51.056;3.712;2023-02-28T06:29:30;30.45;;;27.30;;
23370;SDS011;11858;51.056;3.712;2023-02-28T06:31:57;31.20;;;27.75;;
23370;SDS011;11858;51.056;3.712;2023-02-28T06:34:23;30.20;;;27.13;;
23370;SDS011;11858;51.056;3.712;2023-02-28T06:36:49;31.58;;;27.73;;
23370;SDS011;11858;51.056;3.712;2023-02-28T06:39:16;30.90;;;27.75;;
23370;SDS011;11858;51.056;3.712;2023-02-28T06:41:42;30.27;;;26.98;;
23370;SDS011;11858;51.056;3.712;2023-02-28T06:44:11;31.05;;;27.67;;
23370;SDS011;11858;51.056;3.712;2023-02-28T06:46:40;35.53;;;27.52;;
23370;SDS011;11858;51.056;3.712;2023-02-28T06:49:06;32.30;;;27.33;;
23370;SDS011;11858;51.056;3.712;2023-02-28T06:51:36;30.42;;;26.65;;
23370;SDS011;11858;51.056;3.712;2023-02-28T06:54:03;29.55;;;26.70;;
23370;SDS011;11858;51.056;3.712;2023-02-28T06:56:30;32.03;;;28.10;;
23370;SDS011;11858;51.056;3.712;2023-02-28T06:58:56;30.35;;;27.20;;
23370;SDS011;11858;51.056;3.712;2023-02-28T07:01:22;29.52;;;26.48;;
23370;SDS011;11858;51.056;3.712;2023-02-28T07:03:49;29.73;;;26.63;;
23370;SDS011;11858;51.056;3.712;2023-02-28T07:06:17;30.45;;;27.15;;
23370;SDS011;11858;51.056;3.712;2023-02-28T07:08:44;29.73;;;26.65;;
23370;SDS011;11858;51.056;3.712;2023-02-28T07:11:10;30.13;;;26.92;;
23370;SDS011;11858;51.056;3.712;2023-02-28T07:13:36;28.70;;;25.70;;
23370;SDS011;11858;51.056;3.712;2023-02-28T07:16:05;32.30;;;26.42;;
23370;SDS011;11858;51.056;3.712;2023-02-28T07:18:34;27.15;;;24.23;;
23370;SDS011;11858;51.056;3.712;2023-02-28T07:21:03;27.77;;;25.08;;
23370;SDS011;11858;51.056;3.712;2023-02-28T07:23:31;28.08;;;25.40;;
23370;SDS011;11858;51.056;3.712;2023-02-28T07:25:57;27.52;;;24.83;;
23370;SDS011;11858;51.056;3.712;2023-02-28T07:28:24;27.67;;;25.10;;
23370;SDS011;11858;51.056;3.712;2023-02-28T07:30:50;26.88;;;24.05;;
23370;SDS011;11858;51.056;3.712;2023-02-28T07:33:16;31.02;;;24.48;;
23370;SDS011;11858;51.056;3.712;2023-02-28T07:35:42;27.98;;;24.15;;
23370;SDS011;11858;51.056;3.712;2023-02-28T07:38:08;27.02;;;24.30;;
23370;SDS011;11858;51.056;3.712;2023-02-28T07:40:34;26.95;;;24.35;;
23370;SDS011;11858;51.056;3.712;2023-02-28T07:43:01;25.65;;;22.92;;
23370;SDS011;11858;51.056;3.712;2023-02-28T07:45:28;26.27;;;23.92;;
23370;SDS011;11858;51.056;3.712;2023-02-28T07:47:54;26.83;;;24.30;;
23370;SDS011;11858;51.056;3.712;2023-02-28T07:50:21;29.60;;;23.90;;
23370;SDS011;11858;51.056;3.712;2023-02-28T07:52:46;28.45;;;22.48;;
23370;SDS011;11858;51.056;3.712;2023-02-28T07:55:12;26.10;;;23.48;;
23370;SDS011;11858;51.056;3.712;2023-02-28T07:57:39;26.10;;;23.65;;
23370;SDS011;11858;51.056;3.712;2023-02-28T08:00:06;25.90;;;23.33;;
23370;SDS011;11858;51.056;3.712;2023-02-28T08:02:37;25.67;;;23.35;;
23370;SDS011;11858;51.056;3.712;2023-02-28T08:05:03;24.63;;;22.52;;
23370;SDS011;11858;51.056;3.712;2023-02-28T08:07:30;26.40;;;24.27;;
23370;SDS011;11858;51.056;3.712;2023-02-28T08:09:56;25.35;;;23.15;;
23370;SDS011;11858;51.056;3.712;2023-02-28T08:12:21;26.83;;;24.17;;
23370;SDS011;11858;51.056;3.712;2023-02-28T08:14:47;26.15;;;23.33;;
23370;SDS011;11858;51.056;3.712;2023-02-28T08:17:13;25.13;;;22.73;;
23370;SDS011;11858;51.056;3.712;2023-02-28T08:19:39;25.67;;;23.23;;
23370;SDS011;11858;51.056;3.712;2023-02-28T08:22:04;25.35;;;23.05;;
23370;SDS011;11858;51.056;3.712;2023-02-28T08:24:31;25.88;;;23.42;;
23370;SDS011;11858;51.056;3.712;2023-02-28T08:26:56;25.65;;;23.50;;
23370;SDS011;11858;51.056;3.712;2023-02-28T08:29:22;27.10;;;24.40;;
23370;SDS011;11858;51.056;3.712;2023-02-28T08:31:48;27.02;;;24.13;;
23370;SDS011;11858;51.056;3.712;2023-02-28T08:34:15;27.08;;;24.55;;
23370;SDS011;11858;51.056;3.712;2023-02-28T08:36:41;26.45;;;23.95;;
23370;SDS011;11858;51.056;3.712;2023-02-28T08:39:11;26.63;;;23.90;;
23370;SDS011;11858;51.056;3.712;2023-02-28T08:41:37;26.95;;;24.70;;
23370;SDS011;11858;51.056;3.712;2023-02-28T08:44:03;26.35;;;23.85;;
23370;SDS011;11858;51.056;3.712;2023-02-28T08:46:29;26.33;;;23.92;;
23370;SDS011;11858;51.056;3.712;2023-02-28T08:48:55;27.42;;;24.80;;
23370;SDS011;11858;51.056;3.712;2023-02-28T08:53:53;26.40;;;24.10;;
23370;SDS011;11858;51.056;3.712;2023-02-28T08:56:21;27.45;;;24.73;;
23370;SDS011;11858;51.056;3.712;2023-02-28T08:58:48;26.95;;;24.35;;
23370;SDS011;11858;51.056;3.712;2023-02-28T09:01:18;26.90;;;24.42;;
23370;SDS011;11858;51.056;3.712;2023-02-28T09:03:46;27.25;;;24.33;;
23370;SDS011;11858;51.056;3.712;2023-02-28T09:06:14;26.02;;;23.73;;
23370;SDS011;11858;51.056;3.712;2023-02-28T09:08:41;25.92;;;23.60;;
23370;SDS011;11858;51.056;3.712;2023-02-28T09:11:07;28.17;;;25.60;;
23370;SDS011;11858;51.056;3.712;2023-02-28T09:13:33;27.55;;;25.02;;
23370;SDS011;11858;51.056;3.712;2023-02-28T09:15:59;26.67;;;24.00;;
23370;SDS011;11858;51.056;3.712;2023-02-28T09:18:26;28.10;;;25.40;;
23370;SDS011;11858;51.056;3.712;2023-02-28T09:20:53;26.85;;;24.50;;
23370;SDS011;11858;51.056;3.712;2023-02-28T09:23:19;29.08;;;26.17;;
23370;SDS011;11858;51.056;3.712;2023-02-28T09:25:46;32.10;;;24.77;;
23370;SDS011;11858;51.056;3.712;2023-02-28T09:28:16;27.40;;;24.85;;
23370;SDS011;11858;51.056;3.712;2023-02-28T09:30:46;26.48;;;24.13;;
23370;SDS011;11858;51.056;3.712;2023-02-28T09:33:14;28.20;;;25.50;;
23370;SDS011;11858;51.056;3.712;2023-02-28T09:35:41;26.38;;;23.98;;
23370;SDS011;11858;51.056;3.712;2023-02-28T09:38:08;27.30;;;24.60;;
23370;SDS011;11858;51.056;3.712;2023-02-28T09:40:35;26.08;;;23.98;;
23370;SDS011;11858;51.056;3.712;2023-02-28T09:43:04;25.92;;;23.27;;
23370;SDS011;11858;51.056;3.712;2023-02-28T09:45:37;25.80;;;23.67;;
23370;SDS011;11858;51.056;3.712;2023-02-28T09:48:09;28.15;;;24.73;;
23370;SDS011;11858;51.056;3.712;2023-02-28T09:50:45;26.42;;;24.05;;
23370;SDS011;11858;51.056;3.712;2023-02-28T09:53:19;27.65;;;24.73;;
23370;SDS011;11858;51.056;3.712;2023-02-28T09:55:53;26.27;;;23.55;;
23370;SDS011;11858;51.056;3.712;2023-02-28T09:58:32;27.17;;;24.77;;
23370;SDS011;11858;51.056;3.712;2023-02-28T10:01:12;26.33;;;23.85;;
23370;SDS011;11858;51.056;3.712;2023-02-28T10:03:57;26.02;;;23.73;;
23370;SDS011;11858;51.056;3.712;2023-02-28T10:06:29;25.63;;;23.42;;
23370;SDS011;11858;51.056;3.712;2023-02-28T10:09:02;26.60;;;24.02;;
23370;SDS011;11858;51.056;3.712;2023-02-28T10:11:32;26.60;;;24.17;;
23370;SDS011;11858;51.056;3.712;2023-02-28T10:14:16;27.63;;;25.02;;
23370;SDS011;11858;51.056;3.712;2023-02-28T10:16:47;25.77;;;23.15;;
23370;SDS011;11858;51.056;3.712;2023-02-28T10:22:10;25.88;;;23.40;;
23370;SDS011;11858;51.056;3.712;2023-02-28T10:24:43;25.73;;;23.48;;
23370;SDS011;11858;51.056;3.712;2023-02-28T10:27:14;26.65;;;23.95;;
23370;SDS011;11858;51.056;3.712;2023-02-28T10:29:43;25.98;;;23.55;;
23370;SDS011;11858;51.056;3.712;2023-02-28T10:32:18;25.30;;;23.00;;
23370;SDS011;11858;51.056;3.712;2023-02-28T10:35:31;26.63;;;24.05;;
23370;SDS011;11858;51.056;3.712;2023-02-28T10:37:37;25.25;;;23.15;;
23370;SDS011;11858;51.056;3.712;2023-02-28T10:40:06;25.30;;;23.00;;
23370;SDS011;11858;51.056;3.712;2023-02-28T10:42:57;25.42;;;23.20;;
23370;SDS011;11858;51.056;3.712;2023-02-28T10:45:32;24.95;;;22.80;;
23370;SDS011;11858;51.056;3.712;2023-02-28T10:50:55;24.08;;;22.27;;
23370;SDS011;11858;51.056;3.712;2023-02-28T10:58:24;25.92;;;23.70;;
23370;SDS011;11858;51.056;3.712;2023-02-28T11:00:51;25.80;;;23.30;;
23370;SDS011;11858;51.056;3.712;2023-02-28T11:03:31;25.75;;;23.55;;
23370;SDS011;11858;51.056;3.712;2023-02-28T11:06:04;26.00;;;23.52;;
23370;SDS011;11858;51.056;3.712;2023-02-28T11:08:33;25.58;;;23.15;;
23370;SDS011;11858;51.056;3.712;2023-02-28T11:11:00;23.67;;;21.73;;
23370;SDS011;11858;51.056;3.712;2023-02-28T11:13:35;25.05;;;22.98;;
23370;SDS011;11858;51.056;3.712;2023-02-28T11:16:06;24.05;;;22.05;;
23370;SDS011;11858;51.056;3.712;2023-02-28T11:21:33;24.23;;;22.30;;
23370;SDS011;11858;51.056;3.712;2023-02-28T11:26:54;24.55;;;22.60;;
23370;SDS011;11858;51.056;3.712;2023-02-28T11:29:25;24.20;;;22.35;;
23370;SDS011;11858;51.056;3.712;2023-02-28T11:32:13;23.83;;;22.13;;
23370;SDS011;11858;51.056;3.712;2023-02-28T11:34:46;24.92;;;22.85;;
23370;SDS011;11858;51.056;3.712;2023-02-28T11:37:25;24.30;;;22.20;;
23370;SDS011;11858;51.056;3.712;2023-02-28T11:39:53;24.77;;;22.63;;
23370;SDS011;11858;51.056;3.712;2023-02-28T12:10:05;22.83;;;20.92;;
23370;SDS011;11858;51.056;3.712;2023-02-28T12:23:59;23.90;;;22.02;;
23370;SDS011;11858;51.056;3.712;2023-02-28T12:29:21;21.92;;;20.05;;
23370;SDS011;11858;51.056;3.712;2023-02-28T12:37:37;23.10;;;21.30;;
23370;SDS011;11858;51.056;3.712;2023-02-28T12:40:11;24.20;;;21.45;;
23370;SDS011;11858;51.056;3.712;2023-02-28T12:42:41;23.13;;;21.20;;
23370;SDS011;11858;51.056;3.712;2023-02-28T12:45:18;23.25;;;21.40;;
23370;SDS011;11858;51.056;3.712;2023-02-28T12:47:49;22.35;;;20.60;;
23370;SDS011;11858;51.056;3.712;2023-02-28T12:50:20;23.95;;;21.85;;
23370;SDS011;11858;51.056;3.712;2023-02-28T12:55:27;21.95;;;20.17;;
23370;SDS011;11858;51.056;3.712;2023-02-28T13:00:39;23.08;;;21.10;;
23370;SDS011;11858;51.056;3.712;2023-02-28T13:03:46;23.65;;;21.42;;
23370;SDS011;11858;51.056;3.712;2023-02-28T13:09:36;21.33;;;19.73;;
23370;SDS011;11858;51.056;3.712;2023-02-28T13:12:12;23.48;;;21.35;;
23370;SDS011;11858;51.056;3.712;2023-02-28T13:14:39;22.05;;;20.35;;
23370;SDS011;11858;51.056;3.712;2023-02-28T13:19:38;22.45;;;20.65;;
23370;SDS011;11858;51.056;3.712;2023-02-28T13:22:18;22.42;;;20.83;;
23370;SDS011;11858;51.056;3.712;2023-02-28T13:24:53;23.65;;;21.52;;
23370;SDS011;11858;51.056;3.712;2023-02-28T13:29:50;22.67;;;20.92;;
23370;SDS011;11858;51.056;3.712;2023-02-28T13:32:35;22.85;;;21.05;;
23370;SDS011;11858;51.056;3.712;2023-02-28T13:39:59;21.60;;;20.10;;
23370;SDS011;11858;51.056;3.712;2023-02-28T13:42:35;22.10;;;20.33;;
23370;SDS011;11858;51.056;3.712;2023-02-28T13:47:39;21.40;;;19.70;;
23370;SDS011;11858;51.056;3.712;2023-02-28T13:56:01;21.70;;;20.08;;
23370;SDS011;11858;51.056;3.712;2023-02-28T14:06:57;22.73;;;20.73;;
23370;SDS011;11858;51.056;3.712;2023-02-28T14:09:26;23.38;;;21.50;;
23370;SDS011;11858;51.056;3.712;2023-02-28T14:11:52;23.00;;;21.00;;
23370;SDS011;11858;51.056;3.712;2023-02-28T14:17:17;21.85;;;20.15;;
23370;SDS011;11858;51.056;3.712;2023-02-28T14:19:46;21.40;;;19.90;;
23370;SDS011;11858;51.056;3.712;2023-02-28T14:26:19;23.17;;;21.17;;
23370;SDS011;11858;51.056;3.712;2023-02-28T14:31:23;23.60;;;21.70;;
23370;SDS011;11858;51.056;3.712;2023-02-28T14:34:12;23.80;;;21.63;;
23370;SDS011;11858;51.056;3.712;2023-02-28T14:36:45;23.95;;;21.80;;
23370;SDS011;11858;51.056;3.712;2023-02-28T14:39:16;24.20;;;21.80;;
23370;SDS011;11858;51.056;3.712;2023-02-28T14:41:47;22.58;;;20.88;;
23370;SDS011;11858;51.056;3.712;2023-02-28T14:44:26;21.45;;;19.85;;
23370;SDS011;11858;51.056;3.712;2023-02-28T14:46:56;21.95;;;20.35;;
23370;SDS011;11858;51.056;3.712;2023-02-28T14:49:51;22.05;;;20.25;;
23370;SDS011;11858;51.056;3.712;2023-02-28T14:52:32;22.88;;;20.85;;
23370;SDS011;11858;51.056;3.712;2023-02-28T14:55:05;24.02;;;21.85;;
23370;SDS011;11858;51.056;3.712;2023-02-28T14:57:50;21.90;;;20.25;;
23370;SDS011;11858;51.056;3.712;2023-02-28T15:00:27;22.63;;;20.95;;
23370;SDS011;11858;51.056;3.712;2023-02-28T15:02:55;24.38;;;22.48;;
23370;SDS011;11858;51.056;3.712;2023-02-28T15:05:26;23.90;;;22.20;;
23370;SDS011;11858;51.056;3.712;2023-02-28T15:10:58;24.75;;;22.75;;
23370;SDS011;11858;51.056;3.712;2023-02-28T15:13:38;24.35;;;22.45;;
23370;SDS011;11858;51.056;3.712;2023-02-28T15:16:12;26.02;;;23.85;;
23370;SDS011;11858;51.056;3.712;2023-02-28T15:21:25;24.73;;;22.60;;
23370;SDS011;11858;51.056;3.712;2023-02-28T15:26:25;25.05;;;23.13;;
23370;SDS011;11858;51.056;3.712;2023-02-28T15:29:02;25.48;;;23.48;;
23370;SDS011;11858;51.056;3.712;2023-02-28T15:31:35;28.42;;;25.70;;
23370;SDS011;11858;51.056;3.712;2023-02-28T15:34:15;25.52;;;23.55;;
23370;SDS011;11858;51.056;3.712;2023-02-28T15:43:00;25.63;;;23.67;;
23370;SDS011;11858;51.056;3.712;2023-02-28T15:48:09;26.25;;;24.15;;
23370;SDS011;11858;51.056;3.712;2023-02-28T15:50:50;26.23;;;24.03;;
23370;SDS011;11858;51.056;3.712;2023-02-28T15:53:22;27.02;;;24.52;;
23370;SDS011;11858;51.056;3.712;2023-02-28T15:55:54;26.88;;;24.50;;
23370;SDS011;11858;51.056;3.712;2023-02-28T15:58:22;26.50;;;24.15;;
23370;SDS011;11858;51.056;3.712;2023-02-28T16:01:00;25.88;;;23.95;;
23370;SDS011;11858;51.056;3.712;2023-02-28T16:03:35;26.63;;;24.50;;
23370;SDS011;11858;51.056;3.712;2023-02-28T16:08:57;26.88;;;24.67;;
23370;SDS011;11858;51.056;3.712;2023-02-28T16:11:23;26.65;;;24.45;;
23370;SDS011;11858;51.056;3.712;2023-02-28T16:13:49;28.52;;;25.83;;
23370;SDS011;11858;51.056;3.712;2023-02-28T16:16:20;29.08;;;26.38;;
23370;SDS011;11858;51.056;3.712;2023-02-28T16:18:48;28.20;;;25.88;;
23370;SDS011;11858;51.056;3.712;2023-02-28T16:21:14;28.23;;;25.38;;
23370;SDS011;11858;51.056;3.712;2023-02-28T16:23:40;29.67;;;27.25;;
23370;SDS011;11858;51.056;3.712;2023-02-28T16:26:06;29.92;;;27.42;;
23370;SDS011;11858;51.056;3.712;2023-02-28T16:28:34;29.77;;;26.95;;
23370;SDS011;11858;51.056;3.712;2023-02-28T16:31:04;28.70;;;26.13;;
23370;SDS011;11858;51.056;3.712;2023-02-28T16:33:32;26.40;;;24.30;;
23370;SDS011;11858;51.056;3.712;2023-02-28T16:35:59;27.95;;;25.67;;
23370;SDS011;11858;51.056;3.712;2023-02-28T16:38:25;27.58;;;25.30;;
23370;SDS011;11858;51.056;3.712;2023-02-28T16:40:51;27.98;;;25.60;;
23370;SDS011;11858;51.056;3.712;2023-02-28T16:43:22;27.60;;;25.60;;
23370;SDS011;11858;51.056;3.712;2023-02-28T16:45:54;28.73;;;26.17;;
23370;SDS011;11858;51.056;3.712;2023-02-28T16:48:21;28.77;;;26.50;;
23370;SDS011;11858;51.056;3.712;2023-02-28T16:50:48;27.77;;;25.67;;
23370;SDS011;11858;51.056;3.712;2023-02-28T16:53:14;28.50;;;25.60;;
23370;SDS011;11858;51.056;3.712;2023-02-28T16:55:40;29.80;;;27.40;;
23370;SDS011;11858;51.056;3.712;2023-02-28T16:58:06;30.52;;;27.70;;
23370;SDS011;11858;51.056;3.712;2023-02-28T17:00:36;31.45;;;28.52;;
23370;SDS011;11858;51.056;3.712;2023-02-28T17:03:02;31.13;;;28.52;;
23370;SDS011;11858;51.056;3.712;2023-02-28T17:05:29;30.88;;;28.08;;
23370;SDS011;11858;51.056;3.712;2023-02-28T17:08:01;28.38;;;26.17;;
23370;SDS011;11858;51.056;3.712;2023-02-28T17:10:28;27.92;;;25.52;;
23370;SDS011;11858;51.056;3.712;2023-02-28T17:12:54;27.00;;;24.85;;
23370;SDS011;11858;51.056;3.712;2023-02-28T17:15:20;27.92;;;25.50;;
23370;SDS011;11858;51.056;3.712;2023-02-28T17:17:46;26.67;;;24.65;;
23370;SDS011;11858;51.056;3.712;2023-02-28T17:20:20;30.73;;;27.55;;
23370;SDS011;11858;51.056;3.712;2023-02-28T17:22:47;31.30;;;28.27;;
23370;SDS011;11858;51.056;3.712;2023-02-28T17:25:16;32.42;;;29.30;;
23370;SDS011;11858;51.056;3.712;2023-02-28T17:27:42;30.95;;;27.95;;
23370;SDS011;11858;51.056;3.712;2023-02-28T17:30:15;31.17;;;28.17;;
23370;SDS011;11858;51.056;3.712;2023-02-28T17:32:43;32.85;;;29.45;;
23370;SDS011;11858;51.056;3.712;2023-02-28T17:35:09;42.03;;;29.50;;
23370;SDS011;11858;51.056;3.712;2023-02-28T17:37:35;36.05;;;30.13;;
23370;SDS011;11858;51.056;3.712;2023-02-28T17:40:01;30.15;;;27.15;;
23370;SDS011;11858;51.056;3.712;2023-02-28T17:42:27;31.45;;;28.23;;